createdAt,value
2022-09-04T00:01:49.963Z,6.88
2022-09-04T00:04:31.108Z,7.20
2022-09-04T00:07:09.408Z,6.93
2022-09-04T00:09:46.852Z,6.85
2022-09-04T00:12:15.369Z,6.53
2022-09-04T00:14:47.964Z,6.97
2022-09-04T00:17:20.861Z,7.60
2022-09-04T00:19:56.304Z,7.32
2022-09-04T00:22:32.212Z,8.82
2022-09-04T00:25:09.307Z,8.30
2022-09-04T00:27:44.662Z,7.43
2022-09-04T00:30:17.009Z,7.47
2022-09-04T00:32:51.572Z,8.60
2022-09-04T00:35:25.236Z,7.95
2022-09-04T00:37:58.986Z,6.93
2022-09-04T00:40:31.403Z,7.47
2022-09-04T00:43:45.215Z,7.75
2022-09-04T00:46:37.405Z,7.47
2022-09-04T00:49:36.470Z,7.40
2022-09-04T00:52:17.538Z,7.85
2022-09-04T00:54:54.395Z,7.28
2022-09-04T00:58:10.635Z,7.22
2022-09-04T01:00:39.277Z,7.85
2022-09-04T01:03:31.442Z,7.70
2022-09-04T01:06:21.771Z,7.57
2022-09-04T01:09:34.867Z,7.78
2022-09-04T01:12:09.432Z,8.07
2022-09-04T01:14:41.592Z,8.40
2022-09-04T01:17:18.085Z,7.93
2022-09-04T01:19:56.712Z,7.47
2022-09-04T01:22:52.947Z,7.60
2022-09-04T01:25:34.566Z,8.00
2022-09-04T01:28:08.979Z,8.15
2022-09-04T01:30:44.995Z,8.20
2022-09-04T01:33:20.520Z,8.25
2022-09-04T01:35:58.347Z,8.73
2022-09-04T01:38:34.455Z,9.32
2022-09-04T01:41:08.333Z,9.65
2022-09-04T01:43:37.443Z,9.80
2022-09-04T01:46:24.953Z,9.85
2022-09-04T01:48:58.394Z,9.90
2022-09-04T01:51:35.043Z,11.02
2022-09-04T01:54:23.268Z,9.88
2022-09-04T01:56:58.629Z,10.13
2022-09-04T01:59:33.932Z,9.77
2022-09-04T02:02:13.391Z,10.10
2022-09-04T02:04:51.976Z,10.30
2022-09-04T02:07:29.593Z,11.02
2022-09-04T02:10:08.072Z,10.23
2022-09-04T02:12:51.116Z,10.75
2022-09-04T02:15:35.576Z,9.60
2022-09-04T02:18:11.630Z,10.93
2022-09-04T02:20:45.742Z,11.77
2022-09-04T02:23:21.304Z,11.15
2022-09-04T02:25:54.298Z,11.48
2022-09-04T02:28:34.385Z,11.80
2022-09-04T02:31:16.237Z,12.15
2022-09-04T02:33:50.327Z,12.13
2022-09-04T02:36:25.181Z,11.55
2022-09-04T02:39:03.495Z,11.18
2022-09-04T02:41:38.787Z,10.95
2022-09-04T02:44:18.561Z,10.48
2022-09-04T02:47:01.790Z,10.00
2022-09-04T02:49:40.737Z,11.25
2022-09-04T02:52:25.700Z,11.32
2022-09-04T02:55:12.543Z,10.60
2022-09-04T02:57:55.105Z,10.65
2022-09-04T03:00:36.415Z,9.90
2022-09-04T03:03:10.803Z,9.13
2022-09-04T03:05:46.235Z,9.63
2022-09-04T03:08:20.592Z,9.48
2022-09-04T03:10:56.263Z,9.90
2022-09-04T03:13:31.220Z,9.93
2022-09-04T03:16:06.441Z,9.73
2022-09-04T03:19:04.732Z,9.90
2022-09-04T03:21:42.073Z,9.52
2022-09-04T03:24:16.865Z,9.55
2022-09-04T03:26:50.700Z,9.55
2022-09-04T03:29:27.940Z,9.70
2022-09-04T03:32:15.951Z,9.73
2022-09-04T03:34:55.165Z,9.20
2022-09-04T03:37:42.806Z,10.48
2022-09-04T03:40:34.715Z,10.05
2022-09-04T03:43:17.256Z,8.95
2022-09-04T03:45:55.900Z,9.75
2022-09-04T03:48:48.537Z,9.98
2022-09-04T03:51:25.737Z,10.35
2022-09-04T03:54:04.783Z,10.68
2022-09-04T03:56:57.825Z,10.38
2022-09-04T03:59:56.078Z,11.00
2022-09-04T04:02:31.165Z,10.48
2022-09-04T04:05:21.721Z,10.80
2022-09-04T04:08:04.736Z,10.50
2022-09-04T04:10:46.335Z,10.10
2022-09-04T04:13:27.435Z,10.52
2022-09-04T04:16:15.147Z,10.98
2022-09-04T04:18:54.055Z,10.85
2022-09-04T04:21:32.707Z,11.10
2022-09-04T04:24:20.624Z,12.18
2022-09-04T04:27:03.991Z,11.90
2022-09-04T04:29:50.660Z,11.77
2022-09-04T04:32:29.537Z,11.45
2022-09-04T04:35:11.417Z,11.30
2022-09-04T04:37:51.790Z,11.48
2022-09-04T04:40:32.273Z,11.18
2022-09-04T04:43:06.709Z,10.77
2022-09-04T04:45:50.846Z,11.32
2022-09-04T04:49:04.291Z,12.40
2022-09-04T04:52:05.738Z,12.43
2022-09-04T04:54:47.301Z,12.63
2022-09-04T04:57:26.820Z,11.82
2022-09-04T05:00:07.257Z,13.30
2022-09-04T05:02:42.187Z,13.75
2022-09-04T05:05:16.017Z,12.50
2022-09-04T05:07:52.123Z,13.63
2022-09-04T05:10:24.492Z,14.40
2022-09-04T05:13:08.635Z,13.57
2022-09-04T05:16:05.048Z,14.82
2022-09-04T05:18:36.354Z,13.10
2022-09-04T05:21:14.961Z,13.68
2022-09-04T05:23:51.575Z,13.48
2022-09-04T05:26:27.672Z,14.10
2022-09-04T05:29:02.930Z,14.68
2022-09-04T05:31:39.826Z,13.98
2022-09-04T05:34:15.518Z,14.65
2022-09-04T05:36:51.479Z,14.98
2022-09-04T05:39:27.326Z,15.20
2022-09-04T05:42:10.141Z,14.93
2022-09-04T05:44:52.250Z,14.88
2022-09-04T05:47:30.781Z,15.25
2022-09-04T05:50:16.338Z,15.52
2022-09-04T05:53:06.279Z,15.60
2022-09-04T05:55:52.691Z,16.65
2022-09-04T05:58:53.713Z,14.70
2022-09-04T06:01:39.148Z,14.30
2022-09-04T06:04:34.589Z,14.90
2022-09-04T06:07:12.959Z,15.60
2022-09-04T06:09:55.045Z,15.55
2022-09-04T06:12:51.817Z,17.58
2022-09-04T06:15:38.429Z,16.98
2022-09-04T06:18:31.368Z,17.55
2022-09-04T06:21:23.699Z,18.42
2022-09-04T06:24:06.874Z,18.08
2022-09-04T06:27:12.607Z,18.85
2022-09-04T06:30:02.901Z,19.52
2022-09-04T06:32:45.312Z,18.70
2022-09-04T06:35:33.248Z,20.02
2022-09-04T06:38:14.409Z,20.17
2022-09-04T06:40:53.443Z,20.10
2022-09-04T06:43:33.818Z,21.10
2022-09-04T06:46:16.510Z,21.38
2022-09-04T06:48:54.603Z,20.58
2022-09-04T06:51:36.109Z,20.73
2022-09-04T06:54:15.680Z,22.10
2022-09-04T06:57:10.879Z,23.25
2022-09-04T06:59:53.086Z,25.05
2022-09-04T07:02:35.881Z,25.27
2022-09-04T07:05:15.613Z,25.70
2022-09-04T07:07:53.607Z,26.30
2022-09-04T07:10:25.393Z,31.20
2022-09-04T07:13:17.598Z,31.25
2022-09-04T07:16:02.229Z,31.77
2022-09-04T07:18:49.122Z,33.08
2022-09-04T07:21:23.086Z,33.20
2022-09-04T07:24:03.668Z,35.47
2022-09-04T07:26:38.106Z,35.45
2022-09-04T07:29:30.339Z,35.85
2022-09-04T07:32:05.562Z,34.05
2022-09-04T07:34:42.796Z,40.72
2022-09-04T07:37:24.939Z,40.00
2022-09-04T07:40:04.419Z,43.53
2022-09-04T07:42:42.731Z,43.45
2022-09-04T07:45:23.081Z,43.97
2022-09-04T07:47:58.367Z,45.10
2022-09-04T07:50:30.296Z,45.38
2022-09-04T07:53:21.343Z,52.35
2022-09-04T07:55:52.516Z,56.63
2022-09-04T07:58:37.303Z,58.45
2022-09-04T08:01:25.362Z,55.40
2022-09-04T08:04:23.749Z,55.03
2022-09-04T08:06:58.734Z,56.15
2022-09-04T08:09:48.512Z,56.25
2022-09-04T08:12:44.721Z,55.75
2022-09-04T08:15:19.854Z,56.80
2022-09-04T08:18:07.558Z,57.78
2022-09-04T08:20:43.007Z,55.20
2022-09-04T08:23:37.136Z,56.63
2022-09-04T08:26:14.189Z,56.50
2022-09-04T08:28:58.558Z,56.47
2022-09-04T08:31:31.926Z,54.00
2022-09-04T08:34:42.321Z,57.28
2022-09-04T08:37:22.560Z,56.65
2022-09-04T08:40:02.350Z,50.72
2022-09-04T08:42:54.080Z,53.53
2022-09-04T08:45:56.755Z,58.40
2022-09-04T08:49:11.477Z,53.97
2022-09-04T08:52:10.732Z,50.83
2022-09-04T08:55:16.657Z,52.38
2022-09-04T08:58:20.362Z,48.65
2022-09-04T09:01:08.943Z,49.28
2022-09-04T09:04:00.775Z,47.33
2022-09-04T09:07:00.287Z,43.55
2022-09-04T09:09:56.160Z,38.40
2022-09-04T09:12:53.979Z,35.00
2022-09-04T09:15:54.293Z,39.05
2022-09-04T09:18:37.117Z,39.35
2022-09-04T09:21:11.407Z,38.78
2022-09-04T09:23:51.121Z,38.13
2022-09-04T09:26:27.668Z,37.65
2022-09-04T09:29:26.797Z,36.92
2022-09-04T09:32:35.013Z,36.53
2022-09-04T09:35:53.057Z,37.25
2022-09-04T09:39:03.132Z,34.22
2022-09-04T09:42:15.059Z,28.65
2022-09-04T09:45:06.164Z,31.02
2022-09-04T09:47:59.942Z,26.80
2022-09-04T09:51:12.404Z,27.33
2022-09-04T09:54:01.719Z,24.38
2022-09-04T09:57:12.110Z,20.35
2022-09-04T10:00:05.023Z,17.48
2022-09-04T10:03:13.994Z,15.65
2022-09-04T10:06:16.815Z,19.15
2022-09-04T10:09:17.343Z,18.63
2022-09-04T10:12:20.172Z,17.13
2022-09-04T10:15:17.642Z,20.20
2022-09-04T10:18:23.090Z,20.83
2022-09-04T10:21:20.781Z,20.05
2022-09-04T10:24:19.944Z,21.20
2022-09-04T10:27:13.769Z,19.23
2022-09-04T10:30:03.759Z,19.90
2022-09-04T10:33:11.807Z,19.08
2022-09-04T10:35:53.437Z,17.58
2022-09-04T10:38:30.303Z,16.65
2022-09-04T10:41:39.608Z,17.98
2022-09-04T10:44:41.324Z,15.15
2022-09-04T10:47:24.634Z,14.95
2022-09-04T10:50:17.431Z,14.45
2022-09-04T10:53:11.972Z,16.48
2022-09-04T10:55:59.088Z,17.88
2022-09-04T10:58:44.936Z,18.60
2022-09-04T11:01:41.820Z,18.33
2022-09-04T11:04:40.472Z,18.25
2022-09-04T11:07:32.871Z,17.35
2022-09-04T11:10:21.551Z,16.27
2022-09-04T11:13:26.335Z,19.40
2022-09-04T11:16:09.845Z,23.95
2022-09-04T11:19:03.613Z,22.33
2022-09-04T11:22:04.368Z,18.02
2022-09-04T11:25:19.210Z,16.35
2022-09-04T11:28:12.929Z,12.55
2022-09-04T11:31:07.392Z,12.98
2022-09-04T11:34:13.891Z,12.18
2022-09-04T11:37:19.748Z,14.88
2022-09-04T11:40:16.347Z,13.75
2022-09-04T11:43:02.749Z,13.82
2022-09-04T11:45:48.993Z,15.52
2022-09-04T11:48:53.515Z,14.43
2022-09-04T11:52:03.993Z,15.20
2022-09-04T11:55:07.500Z,15.40
2022-09-04T11:57:47.421Z,17.02
2022-09-04T12:00:17.032Z,13.48
2022-09-04T12:03:19.814Z,14.57
2022-09-04T12:06:07.987Z,14.48
2022-09-04T12:09:11.616Z,16.27
2022-09-04T12:12:05.840Z,14.48
2022-09-04T12:14:48.892Z,14.75
2022-09-04T12:17:50.050Z,14.45
2022-09-04T12:20:55.588Z,14.32
2022-09-04T12:23:57.799Z,11.98
2022-09-04T12:26:59.883Z,9.15
2022-09-04T12:30:02.954Z,11.02
2022-09-04T12:33:03.214Z,10.60
2022-09-04T12:36:00.663Z,9.85
2022-09-04T12:38:55.812Z,10.13
2022-09-04T12:41:30.986Z,8.98
2022-09-04T12:44:12.162Z,6.85
2022-09-04T12:47:00.583Z,7.13
2022-09-04T12:49:53.395Z,8.10
2022-09-04T12:52:36.461Z,7.65
2022-09-04T12:55:12.191Z,7.32
2022-09-04T12:57:49.549Z,8.10
2022-09-04T13:00:19.082Z,7.55
2022-09-04T13:03:00.884Z,6.90
2022-09-04T13:05:43.329Z,6.75
2022-09-04T13:08:31.414Z,6.28
2022-09-04T13:11:09.596Z,6.65
2022-09-04T13:13:46.869Z,6.72
2022-09-04T13:16:21.285Z,6.30
2022-09-04T13:19:03.212Z,7.07
2022-09-04T13:21:55.562Z,5.72
2022-09-04T13:24:36.448Z,5.60
2022-09-04T13:27:16.173Z,7.38
2022-09-04T13:30:02.986Z,5.97
2022-09-04T13:32:54.074Z,8.55
2022-09-04T13:35:36.765Z,6.32
2022-09-04T13:38:23.107Z,5.78
2022-09-04T13:41:42.087Z,6.30
2022-09-04T13:44:29.951Z,7.30
2022-09-04T13:47:03.695Z,5.88
2022-09-04T13:49:39.805Z,6.88
2022-09-04T13:52:13.261Z,5.97
2022-09-04T13:54:44.352Z,9.18
2022-09-04T13:57:20.954Z,8.38
2022-09-04T13:59:54.968Z,5.13
2022-09-04T14:02:26.005Z,4.60
2022-09-04T14:05:00.886Z,10.65
2022-09-04T14:07:33.877Z,12.10
2022-09-04T14:10:06.025Z,11.18
2022-09-04T14:12:53.774Z,9.23
2022-09-04T14:15:38.266Z,5.85
2022-09-04T14:18:21.149Z,13.57
2022-09-04T14:21:00.972Z,13.13
2022-09-04T14:23:43.663Z,10.88
2022-09-04T14:26:21.698Z,12.52
2022-09-04T14:28:54.602Z,11.13
2022-09-04T14:31:33.937Z,10.48
2022-09-04T14:34:13.672Z,9.88
2022-09-04T14:36:55.171Z,10.82
2022-09-04T14:39:27.802Z,10.25
2022-09-04T14:42:16.266Z,9.73
2022-09-04T14:45:13.149Z,9.27
2022-09-04T14:47:47.235Z,9.63
2022-09-04T14:50:19.239Z,8.82
2022-09-04T14:52:51.484Z,7.57
2022-09-04T14:55:25.960Z,8.20
2022-09-04T14:58:00.356Z,8.50
2022-09-04T15:00:29.847Z,7.47
2022-09-04T15:03:05.660Z,7.55
2022-09-04T15:05:37.169Z,8.02
2022-09-04T15:08:08.812Z,8.95
2022-09-04T15:10:47.474Z,8.23
2022-09-04T15:13:38.935Z,9.00
2022-09-04T15:16:22.446Z,8.07
2022-09-04T15:19:06.711Z,7.30
2022-09-04T15:21:41.728Z,8.15
2022-09-04T15:24:17.407Z,7.20
2022-09-04T15:26:51.745Z,8.23
2022-09-04T15:29:27.164Z,8.02
2022-09-04T15:32:01.186Z,8.80
2022-09-04T15:34:30.744Z,8.32
2022-09-04T15:37:12.633Z,8.52
2022-09-04T15:39:53.876Z,7.82
2022-09-04T15:42:35.451Z,7.90
2022-09-04T15:45:11.164Z,9.00
2022-09-04T15:47:56.766Z,8.27
2022-09-04T15:50:28.572Z,8.52
2022-09-04T15:53:10.712Z,9.80
2022-09-04T15:55:42.670Z,8.98
2022-09-04T15:58:16.919Z,8.15
2022-09-04T16:01:09.429Z,8.23
2022-09-04T16:03:47.283Z,7.60
2022-09-04T16:06:22.644Z,9.40
2022-09-04T16:08:56.651Z,8.88
2022-09-04T16:11:29.951Z,8.93
2022-09-04T16:13:59.870Z,9.73
2022-09-04T16:16:34.235Z,9.05
2022-09-04T16:19:09.200Z,8.85
2022-09-04T16:21:45.284Z,7.50
2022-09-04T16:24:17.086Z,9.23
2022-09-04T16:26:50.159Z,10.50
2022-09-04T16:29:29.674Z,10.00
2022-09-04T16:31:59.581Z,8.90
2022-09-04T16:34:33.041Z,9.07
2022-09-04T16:37:10.893Z,9.43
2022-09-04T16:39:47.984Z,9.57
2022-09-04T16:42:22.832Z,9.00
2022-09-04T16:44:54.118Z,7.75
2022-09-04T16:47:29.120Z,7.20
2022-09-04T16:50:03.338Z,8.85
2022-09-04T16:52:44.441Z,8.48
2022-09-04T16:55:17.257Z,7.57
2022-09-04T16:57:54.489Z,8.82
2022-09-04T17:00:24.049Z,9.60
2022-09-04T17:02:56.320Z,8.15
2022-09-04T17:05:34.959Z,7.55
2022-09-04T17:08:13.893Z,7.93
2022-09-04T17:10:46.949Z,8.95
2022-09-04T17:13:27.844Z,8.43
2022-09-04T17:16:01.638Z,9.00
2022-09-04T17:18:30.790Z,8.50
2022-09-04T17:24:07.986Z,9.20
2022-09-04T17:28:59.006Z,8.90
2022-09-04T17:29:09.206Z,10.40
2022-09-04T17:29:49.519Z,9.95
2022-09-04T17:33:35.553Z,9.63
2022-09-04T17:40:44.351Z,8.48
2022-09-04T17:40:54.113Z,10.50
2022-09-04T17:41:40.151Z,9.85
2022-09-04T17:44:22.257Z,9.88
2022-09-04T17:47:04.517Z,12.65
2022-09-04T17:49:35.144Z,12.35
2022-09-04T17:52:08.687Z,12.85
2022-09-04T17:54:41.901Z,10.70
2022-09-04T17:57:14.988Z,11.50
2022-09-04T17:59:50.283Z,10.00
2022-09-04T18:02:26.946Z,9.95
2022-09-04T18:05:04.179Z,11.63
2022-09-04T18:08:07.931Z,10.23
2022-09-04T18:10:32.337Z,9.77
2022-09-04T18:13:27.100Z,9.00
2022-09-04T18:16:26.836Z,10.13
2022-09-04T18:18:59.730Z,11.15
2022-09-04T18:21:32.828Z,10.57
2022-09-04T18:24:05.931Z,10.35
2022-09-04T18:26:40.689Z,10.35
2022-09-04T18:31:11.317Z,10.60
2022-09-04T18:37:09.419Z,10.13
2022-09-04T18:37:19.633Z,10.85
2022-09-04T18:38:20.425Z,11.60
2022-09-04T18:45:14.969Z,10.70
2022-09-04T18:50:23.411Z,10.57
2022-09-04T18:50:39.224Z,10.88
2022-09-04T18:50:47.268Z,11.63
2022-09-04T18:52:19.435Z,10.68
2022-09-04T18:54:50.743Z,11.75
2022-09-04T18:57:28.309Z,11.77
2022-09-04T19:00:09.522Z,11.50
2022-09-04T19:02:53.055Z,11.60
2022-09-04T19:05:24.527Z,12.20
2022-09-04T19:07:59.819Z,12.75
2022-09-04T19:10:30.683Z,12.60
2022-09-04T19:13:03.968Z,12.85
2022-09-04T19:15:50.869Z,12.48
2022-09-04T19:18:27.390Z,12.30
2022-09-04T19:21:15.072Z,13.55
2022-09-04T19:23:50.045Z,12.13
2022-09-04T19:26:26.209Z,14.35
2022-09-04T19:29:00.105Z,14.20
2022-09-04T19:31:33.461Z,13.70
2022-09-04T19:34:09.624Z,13.85
2022-09-04T19:36:43.752Z,14.45
2022-09-04T19:45:59.861Z,13.73
2022-09-04T19:46:05.540Z,14.63
2022-09-04T19:46:18.141Z,14.57
2022-09-04T19:48:22.378Z,14.13
2022-09-04T19:53:21.496Z,14.00
2022-09-04T19:53:57.323Z,14.80
2022-09-04T19:56:31.923Z,14.75
2022-09-04T19:59:18.832Z,14.75
2022-09-04T20:01:50.753Z,15.38
2022-09-04T20:04:30.151Z,14.57
2022-09-04T20:07:02.883Z,16.45
2022-09-04T20:09:37.388Z,14.95
2022-09-04T20:12:19.329Z,15.52
2022-09-04T20:14:55.068Z,16.02
2022-09-04T20:17:44.501Z,15.38
2022-09-04T20:20:23.097Z,17.00
2022-09-04T20:22:56.515Z,17.98
2022-09-04T20:25:37.575Z,17.15
2022-09-04T20:28:24.985Z,16.67
2022-09-04T20:31:36.137Z,17.13
2022-09-04T20:34:01.024Z,16.70
2022-09-04T20:36:33.979Z,17.27
2022-09-04T20:39:08.292Z,17.73
2022-09-04T20:41:47.764Z,17.25
2022-09-04T20:44:24.519Z,19.02
2022-09-04T20:52:42.966Z,18.00
2022-09-04T20:52:59.024Z,18.52
2022-09-04T20:53:08.511Z,19.95
2022-09-04T20:56:24.749Z,18.95
2022-09-04T21:03:11.778Z,18.92
2022-09-04T21:03:14.862Z,18.73
2022-09-04T21:05:25.393Z,20.40
2022-09-04T21:07:57.921Z,19.83
2022-09-04T21:10:32.474Z,20.55
2022-09-04T21:13:14.202Z,19.83
2022-09-04T21:15:49.143Z,19.70
2022-09-04T21:18:46.375Z,19.85
2022-09-04T21:22:02.834Z,20.38
2022-09-04T21:24:54.611Z,20.58
2022-09-04T21:27:45.119Z,20.73
2022-09-04T21:30:16.119Z,19.98
2022-09-04T21:33:28.085Z,19.10
2022-09-04T21:36:25.744Z,20.77
2022-09-04T21:39:08.916Z,19.73
2022-09-04T21:41:57.895Z,18.85
2022-09-04T21:45:03.795Z,19.27
2022-09-04T21:47:53.599Z,19.65
2022-09-04T21:50:44.185Z,19.20
2022-09-04T21:53:32.372Z,19.40
2022-09-04T21:58:41.230Z,18.70
2022-09-04T22:02:45.024Z,19.13
2022-09-04T22:02:51.548Z,17.40
2022-09-04T22:05:27.445Z,18.25
2022-09-04T22:13:29.478Z,17.90
2022-09-04T22:13:35.346Z,18.98
2022-09-04T22:14:04.357Z,17.17
2022-09-04T22:16:47.650Z,17.40
2022-09-04T22:19:27.684Z,17.10
2022-09-04T22:22:05.027Z,18.38
2022-09-04T22:25:19.959Z,16.48
2022-09-04T22:28:37.917Z,15.75
2022-09-04T22:31:56.359Z,15.50
2022-09-04T22:34:59.873Z,15.55
2022-09-04T22:37:59.779Z,15.07
2022-09-04T22:40:55.961Z,12.85
2022-09-04T22:43:26.399Z,13.07
2022-09-04T22:46:30.771Z,12.38
2022-09-04T22:49:26.319Z,13.05
2022-09-04T22:52:25.228Z,12.88
2022-09-04T22:55:17.835Z,12.20
2022-09-04T22:58:08.072Z,11.60
2022-09-04T23:01:02.451Z,10.63
2022-09-04T23:03:49.662Z,10.45
2022-09-04T23:08:08.518Z,9.15
2022-09-04T23:13:58.372Z,7.63
2022-09-04T23:14:00.191Z,9.68
2022-09-04T23:16:28.101Z,7.43
2022-09-04T23:23:48.916Z,7.15
2022-09-04T23:26:51.089Z,7.50
2022-09-04T23:26:52.825Z,5.30
2022-09-04T23:28:31.623Z,4.90
2022-09-04T23:31:27.252Z,4.35
2022-09-04T23:34:26.012Z,3.72
2022-09-04T23:37:28.524Z,3.70
2022-09-04T23:40:18.716Z,3.30
2022-09-04T23:43:09.038Z,3.78
2022-09-04T23:46:08.070Z,3.92
2022-09-04T23:49:06.755Z,3.33
2022-09-04T23:51:46.517Z,3.17
2022-09-04T23:54:52.388Z,3.45
2022-09-04T23:57:27.680Z,3.38
